sensor_id;sensor_type;location;lat;lon;timestamp;pressure;altitude;pressure_sealevel;temperature;humidity
7075;BME280;3578;51.568;6.932;2022-09-09T00:00:01;55531.50;;;-144.14;99.83
7075;BME280;3578;51.568;6.932;2022-09-09T00:02:28;55511.44;;;-144.14;99.73
7075;BME280;3578;51.568;6.932;2022-09-09T00:05:00;55459.31;;;-144.14;99.87
7075;BME280;3578;51.568;6.932;2022-09-09T00:07:41;55479.34;;;-144.14;99.85
7075;BME280;3578;51.568;6.932;2022-09-09T00:10:19;55469.34;;;-144.14;99.84
7075;BME280;3578;51.568;6.932;2022-09-09T00:12:57;55443.25;;;-144.14;99.90
7075;BME280;3578;51.568;6.932;2022-09-09T00:15:31;55453.28;;;-144.14;99.68
7075;BME280;3578;51.568;6.932;2022-09-09T00:18:11;55463.31;;;-144.14;99.70
7075;BME280;3578;51.568;6.932;2022-09-09T00:20:44;55475.34;;;-144.14;99.74
7075;BME280;3578;51.568;6.932;2022-09-09T00:23:24;55477.34;;;-144.14;99.84
7075;BME280;3578;51.568;6.932;2022-09-09T00:26:02;55495.41;;;-144.14;99.69
7075;BME280;3578;51.568;6.932;2022-09-09T00:28:39;55429.22;;;-144.14;99.79
7075;BME280;3578;51.568;6.932;2022-09-09T00:31:13;55453.28;;;-144.14;99.80
7075;BME280;3578;51.568;6.932;2022-09-09T00:33:41;55443.25;;;-144.14;99.90
7075;BME280;3578;51.568;6.932;2022-09-09T00:36:13;55423.22;;;-144.14;100.00
7075;BME280;3578;51.568;6.932;2022-09-09T00:38:45;55447.28;;;-144.14;100.00
7075;BME280;3578;51.568;6.932;2022-09-09T00:41:20;55379.09;;;-144.14;100.00
7075;BME280;3578;51.568;6.932;2022-09-09T00:43:57;55395.13;;;-144.14;100.00
7075;BME280;3578;51.568;6.932;2022-09-09T00:46:50;55425.22;;;-144.14;100.00
7075;BME280;3578;51.568;6.932;2022-09-09T00:49:30;55397.13;;;-144.14;100.00
7075;BME280;3578;51.568;6.932;2022-09-09T00:52:17;55383.09;;;-144.14;100.00
7075;BME280;3578;51.568;6.932;2022-09-09T00:54:54;55381.09;;;-144.14;100.00
7075;BME280;3578;51.568;6.932;2022-09-09T00:57:27;55421.19;;;-144.14;100.00
7075;BME280;3578;51.568;6.932;2022-09-09T01:00:19;55425.22;;;-144.14;100.00
7075;BME280;3578;51.568;6.932;2022-09-09T01:03:02;55415.19;;;-144.14;100.00
7075;BME280;3578;51.568;6.932;2022-09-09T01:05:39;55431.22;;;-144.14;100.00
7075;BME280;3578;51.568;6.932;2022-09-09T01:08:22;55451.28;;;-144.14;100.00
7075;BME280;3578;51.568;6.932;2022-09-09T01:10:54;55421.19;;;-144.14;100.00
7075;BME280;3578;51.568;6.932;2022-09-09T01:13:26;55461.31;;;-144.14;100.00
7075;BME280;3578;51.568;6.932;2022-09-09T01:15:58;55459.31;;;-144.14;100.00
7075;BME280;3578;51.568;6.932;2022-09-09T01:18:29;55457.28;;;-144.14;100.00
7075;BME280;3578;51.568;6.932;2022-09-09T01:21:07;55475.34;;;-144.14;100.00
7075;BME280;3578;51.568;6.932;2022-09-09T01:24:04;55467.31;;;-144.14;100.00
7075;BME280;3578;51.568;6.932;2022-09-09T01:26:37;55463.31;;;-144.14;100.00
7075;BME280;3578;51.568;6.932;2022-09-09T01:29:09;55479.34;;;-144.14;100.00
7075;BME280;3578;51.568;6.932;2022-09-09T01:31:39;55449.28;;;-144.14;100.00
7075;BME280;3578;51.568;6.932;2022-09-09T01:34:11;55413.19;;;-144.14;100.00
7075;BME280;3578;51.568;6.932;2022-09-09T01:36:42;55425.22;;;-144.14;100.00
7075;BME280;3578;51.568;6.932;2022-09-09T01:39:11;55405.16;;;-144.14;100.00
7075;BME280;3578;51.568;6.932;2022-09-09T01:41:40;55417.19;;;-144.14;100.00
7075;BME280;3578;51.568;6.932;2022-09-09T01:44:08;55373.06;;;-144.14;100.00
7075;BME280;3578;51.568;6.932;2022-09-09T01:46:35;55343.00;;;-144.14;100.00
7075;BME280;3578;51.568;6.932;2022-09-09T01:49:05;55359.03;;;-144.14;100.00
7075;BME280;3578;51.568;6.932;2022-09-09T01:51:34;55361.03;;;-144.14;100.00
7075;BME280;3578;51.568;6.932;2022-09-09T01:54:02;55349.00;;;-144.14;100.00
7075;BME280;3578;51.568;6.932;2022-09-09T01:56:46;55351.00;;;-144.14;100.00
7075;BME280;3578;51.568;6.932;2022-09-09T01:59:38;55306.91;;;-144.14;100.00
7075;BME280;3578;51.568;6.932;2022-09-09T02:02:11;55282.84;;;-144.14;100.00
7075;BME280;3578;51.568;6.932;2022-09-09T02:04:44;55304.88;;;-144.14;100.00
7075;BME280;3578;51.568;6.932;2022-09-09T02:07:32;55280.81;;;-144.14;100.00
7075;BME280;3578;51.568;6.932;2022-09-09T02:10:10;55260.78;;;-144.14;100.00
7075;BME280;3578;51.568;6.932;2022-09-09T02:12:44;55320.94;;;-144.14;100.00
7075;BME280;3578;51.568;6.932;2022-09-09T02:15:20;55306.91;;;-144.14;100.00
7075;BME280;3578;51.568;6.932;2022-09-09T02:17:50;55347.00;;;-144.14;100.00
7075;BME280;3578;51.568;6.932;2022-09-09T02:20:20;55298.88;;;-144.14;100.00
7075;BME280;3578;51.568;6.932;2022-09-09T02:22:50;55338.97;;;-144.14;100.00
7075;BME280;3578;51.568;6.932;2022-09-09T02:25:22;55383.09;;;-144.14;100.00
7075;BME280;3578;51.568;6.932;2022-09-09T02:27:52;55389.13;;;-144.14;100.00
7075;BME280;3578;51.568;6.932;2022-09-09T02:30:20;55405.16;;;-144.14;100.00
7075;BME280;3578;51.568;6.932;2022-09-09T02:32:50;55371.06;;;-144.14;100.00
7075;BME280;3578;51.568;6.932;2022-09-09T02:35:23;55395.13;;;-144.14;100.00
7075;BME280;3578;51.568;6.932;2022-09-09T02:37:54;55395.13;;;-144.14;100.00
7075;BME280;3578;51.568;6.932;2022-09-09T02:40:24;55381.09;;;-144.14;100.00
7075;BME280;3578;51.568;6.932;2022-09-09T02:42:54;55433.22;;;-144.14;100.00
7075;BME280;3578;51.568;6.932;2022-09-09T02:45:26;55423.22;;;-144.14;100.00
7075;BME280;3578;51.568;6.932;2022-09-09T02:48:03;55435.25;;;-144.14;100.00
7075;BME280;3578;51.568;6.932;2022-09-09T02:50:39;55439.25;;;-144.14;100.00
7075;BME280;3578;51.568;6.932;2022-09-09T02:53:15;55447.28;;;-144.14;100.00
7075;BME280;3578;51.568;6.932;2022-09-09T02:55:48;55455.28;;;-144.14;100.00
7075;BME280;3578;51.568;6.932;2022-09-09T02:58:21;55429.22;;;-144.14;100.00
7075;BME280;3578;51.568;6.932;2022-09-09T03:00:50;55467.31;;;-144.14;100.00
7075;BME280;3578;51.568;6.932;2022-09-09T03:03:18;55445.25;;;-144.14;100.00
7075;BME280;3578;51.568;6.932;2022-09-09T03:05:47;55487.38;;;-144.14;100.00
7075;BME280;3578;51.568;6.932;2022-09-09T03:08:15;55489.38;;;-144.14;100.00
7075;BME280;3578;51.568;6.932;2022-09-09T03:10:42;55495.41;;;-144.14;100.00
7075;BME280;3578;51.568;6.932;2022-09-09T03:13:10;55467.31;;;-144.14;100.00
7075;BME280;3578;51.568;6.932;2022-09-09T03:15:39;55437.25;;;-144.14;100.00
7075;BME280;3578;51.568;6.932;2022-09-09T03:18:06;55419.19;;;-144.14;100.00
7075;BME280;3578;51.568;6.932;2022-09-09T03:20:33;55451.28;;;-144.14;100.00
7075;BME280;3578;51.568;6.932;2022-09-09T03:23:00;55387.09;;;-144.14;100.00
7075;BME280;3578;51.568;6.932;2022-09-09T03:25:28;55409.16;;;-144.14;100.00
7075;BME280;3578;51.568;6.932;2022-09-09T03:27:56;55401.16;;;-144.14;100.00
7075;BME280;3578;51.568;6.932;2022-09-09T03:30:24;55351.00;;;-144.14;100.00
7075;BME280;3578;51.568;6.932;2022-09-09T03:32:53;55359.03;;;-144.14;100.00
7075;BME280;3578;51.568;6.932;2022-09-09T03:35:21;55338.97;;;-144.14;100.00
7075;BME280;3578;51.568;6.932;2022-09-09T03:37:48;55391.13;;;-144.14;100.00
7075;BME280;3578;51.568;6.932;2022-09-09T03:40:15;55355.03;;;-144.14;100.00
7075;BME280;3578;51.568;6.932;2022-09-09T03:42:43;55379.09;;;-144.14;100.00
7075;BME280;3578;51.568;6.932;2022-09-09T03:45:10;55351.00;;;-144.14;100.00
7075;BME280;3578;51.568;6.932;2022-09-09T03:47:37;55373.06;;;-144.14;100.00
7075;BME280;3578;51.568;6.932;2022-09-09T03:50:08;55347.00;;;-144.14;100.00
7075;BME280;3578;51.568;6.932;2022-09-09T03:52:36;55314.91;;;-144.14;100.00
7075;BME280;3578;51.568;6.932;2022-09-09T03:55:04;55363.03;;;-144.14;100.00
7075;BME280;3578;51.568;6.932;2022-09-09T03:57:32;55330.97;;;-144.14;100.00
7075;BME280;3578;51.568;6.932;2022-09-09T04:00:02;55365.06;;;-144.14;100.00
7075;BME280;3578;51.568;6.932;2022-09-09T04:02:29;55336.97;;;-144.14;100.00
7075;BME280;3578;51.568;6.932;2022-09-09T04:04:56;55345.00;;;-144.14;100.00
7075;BME280;3578;51.568;6.932;2022-09-09T04:07:25;55357.03;;;-144.14;100.00
7075;BME280;3578;51.568;6.932;2022-09-09T04:09:52;55365.06;;;-144.14;100.00
7075;BME280;3578;51.568;6.932;2022-09-09T04:12:20;55387.09;;;-144.14;100.00
7075;BME280;3578;51.568;6.932;2022-09-09T04:14:48;55393.13;;;-144.14;100.00
7075;BME280;3578;51.568;6.932;2022-09-09T04:17:14;55310.91;;;-144.14;100.00
7075;BME280;3578;51.568;6.932;2022-09-09T04:19:41;55351.00;;;-144.14;100.00
7075;BME280;3578;51.568;6.932;2022-09-09T04:22:09;55332.97;;;-144.14;100.00
7075;BME280;3578;51.568;6.932;2022-09-09T04:24:37;55314.91;;;-144.14;100.00
7075;BME280;3578;51.568;6.932;2022-09-09T04:27:04;55296.88;;;-144.14;100.00
7075;BME280;3578;51.568;6.932;2022-09-09T04:29:31;55326.94;;;-144.14;100.00
7075;BME280;3578;51.568;6.932;2022-09-09T04:31:58;55369.06;;;-144.14;100.00
7075;BME280;3578;51.568;6.932;2022-09-09T04:34:25;55407.16;;;-144.14;100.00
7075;BME280;3578;51.568;6.932;2022-09-09T04:36:52;55371.06;;;-144.14;100.00
7075;BME280;3578;51.568;6.932;2022-09-09T04:39:20;55353.03;;;-144.14;100.00
7075;BME280;3578;51.568;6.932;2022-09-09T04:41:49;55379.09;;;-144.14;100.00
7075;BME280;3578;51.568;6.932;2022-09-09T04:44:16;55373.06;;;-144.14;100.00
7075;BME280;3578;51.568;6.932;2022-09-09T04:46:43;55377.09;;;-144.14;100.00
7075;BME280;3578;51.568;6.932;2022-09-09T04:49:10;55401.16;;;-144.14;100.00
7075;BME280;3578;51.568;6.932;2022-09-09T04:51:37;55431.22;;;-144.14;100.00
7075;BME280;3578;51.568;6.932;2022-09-09T04:54:04;55407.16;;;-144.14;100.00
7075;BME280;3578;51.568;6.932;2022-09-09T04:56:31;55435.25;;;-144.14;100.00
7075;BME280;3578;51.568;6.932;2022-09-09T04:59:00;55441.25;;;-144.14;100.00
7075;BME280;3578;51.568;6.932;2022-09-09T05:01:28;55427.22;;;-144.14;100.00
7075;BME280;3578;51.568;6.932;2022-09-09T05:03:55;55407.16;;;-144.14;100.00
7075;BME280;3578;51.568;6.932;2022-09-09T05:06:23;55447.28;;;-144.14;100.00
7075;BME280;3578;51.568;6.932;2022-09-09T05:08:50;55471.34;;;-144.14;100.00
7075;BME280;3578;51.568;6.932;2022-09-09T05:11:18;55447.28;;;-144.14;100.00
7075;BME280;3578;51.568;6.932;2022-09-09T05:13:46;55487.38;;;-144.14;100.00
7075;BME280;3578;51.568;6.932;2022-09-09T05:16:15;55457.28;;;-144.14;100.00
7075;BME280;3578;51.568;6.932;2022-09-09T05:18:43;55465.31;;;-144.14;100.00
7075;BME280;3578;51.568;6.932;2022-09-09T05:21:12;55537.50;;;-144.14;100.00
7075;BME280;3578;51.568;6.932;2022-09-09T05:23:40;55499.41;;;-144.14;100.00
7075;BME280;3578;51.568;6.932;2022-09-09T05:26:11;55503.41;;;-144.14;100.00
7075;BME280;3578;51.568;6.932;2022-09-09T05:28:39;55503.41;;;-144.14;100.00
7075;BME280;3578;51.568;6.932;2022-09-09T05:31:08;55551.56;;;-144.14;100.00
7075;BME280;3578;51.568;6.932;2022-09-09T05:33:39;55579.63;;;-144.14;100.00
7075;BME280;3578;51.568;6.932;2022-09-09T05:36:09;55537.50;;;-144.14;100.00
7075;BME280;3578;51.568;6.932;2022-09-09T05:38:39;55561.59;;;-144.14;100.00
7075;BME280;3578;51.568;6.932;2022-09-09T05:41:07;55579.63;;;-144.14;100.00
7075;BME280;3578;51.568;6.932;2022-09-09T05:43:35;55573.63;;;-144.14;100.00
7075;BME280;3578;51.568;6.932;2022-09-09T05:46:05;55601.69;;;-144.14;100.00
7075;BME280;3578;51.568;6.932;2022-09-09T05:48:33;55595.69;;;-144.14;100.00
7075;BME280;3578;51.568;6.932;2022-09-09T05:51:03;55595.69;;;-144.14;100.00
7075;BME280;3578;51.568;6.932;2022-09-09T05:53:31;55639.78;;;-144.14;100.00
7075;BME280;3578;51.568;6.932;2022-09-09T05:56:01;55631.78;;;-144.14;100.00
7075;BME280;3578;51.568;6.932;2022-09-09T05:58:29;55625.75;;;-144.14;100.00
7075;BME280;3578;51.568;6.932;2022-09-09T06:01:05;55637.78;;;-144.14;100.00
7075;BME280;3578;51.568;6.932;2022-09-09T06:03:33;55575.63;;;-144.14;100.00
7075;BME280;3578;51.568;6.932;2022-09-09T06:06:04;55649.81;;;-144.14;100.00
7075;BME280;3578;51.568;6.932;2022-09-09T06:08:32;55607.72;;;-144.14;100.00
7075;BME280;3578;51.568;6.932;2022-09-09T06:11:03;55605.69;;;-144.14;100.00
7075;BME280;3578;51.568;6.932;2022-09-09T06:13:32;55589.66;;;-144.14;100.00
7075;BME280;3578;51.568;6.932;2022-09-09T06:15:59;55579.63;;;-144.14;100.00
7075;BME280;3578;51.568;6.932;2022-09-09T06:18:26;55599.69;;;-144.14;100.00
7075;BME280;3578;51.568;6.932;2022-09-09T06:20:55;55609.72;;;-144.14;100.00
7075;BME280;3578;51.568;6.932;2022-09-09T06:23:25;55647.81;;;-144.14;100.00
7075;BME280;3578;51.568;6.932;2022-09-09T06:26:00;55667.88;;;-144.14;100.00
7075;BME280;3578;51.568;6.932;2022-09-09T06:28:27;55665.88;;;-144.14;100.00
7075;BME280;3578;51.568;6.932;2022-09-09T06:30:58;55716.00;;;-144.14;100.00
7075;BME280;3578;51.568;6.932;2022-09-09T06:33:25;55716.00;;;-144.14;100.00
7075;BME280;3578;51.568;6.932;2022-09-09T06:35:53;55677.91;;;-144.14;99.78
7075;BME280;3578;51.568;6.932;2022-09-09T06:38:24;55756.13;;;-144.14;99.89
7075;BME280;3578;51.568;6.932;2022-09-09T06:40:52;55738.06;;;-144.14;99.78
7075;BME280;3578;51.568;6.932;2022-09-09T06:43:20;55750.09;;;-144.14;99.65
7075;BME280;3578;51.568;6.932;2022-09-09T06:45:54;55814.28;;;-144.14;99.61
7075;BME280;3578;51.568;6.932;2022-09-09T06:48:21;55828.31;;;-144.14;99.58
7075;BME280;3578;51.568;6.932;2022-09-09T06:50:48;55800.25;;;-144.14;99.25
7075;BME280;3578;51.568;6.932;2022-09-09T06:53:17;55886.47;;;-144.14;99.15
7075;BME280;3578;51.568;6.932;2022-09-09T06:55:46;55976.72;;;-144.14;98.59
7075;BME280;3578;51.568;6.932;2022-09-09T06:58:13;56020.88;;;-144.14;98.02
7075;BME280;3578;51.568;6.932;2022-09-09T07:00:40;56060.97;;;-144.14;97.61
7075;BME280;3578;51.568;6.932;2022-09-09T07:03:07;56077.03;;;-144.14;97.25
7075;BME280;3578;51.568;6.932;2022-09-09T07:05:36;56095.06;;;-144.14;96.18
7075;BME280;3578;51.568;6.932;2022-09-09T07:08:03;56077.03;;;-144.14;96.03
7075;BME280;3578;51.568;6.932;2022-09-09T07:10:31;56121.16;;;-144.14;96.05
7075;BME280;3578;51.568;6.932;2022-09-09T07:13:01;56109.13;;;-144.14;95.88
7075;BME280;3578;51.568;6.932;2022-09-09T07:15:28;56157.25;;;-144.14;94.65
7075;BME280;3578;51.568;6.932;2022-09-09T07:17:55;56177.31;;;-144.14;94.25
7075;BME280;3578;51.568;6.932;2022-09-09T07:20:27;56221.44;;;-144.14;94.14
7075;BME280;3578;51.568;6.932;2022-09-09T07:22:55;56229.47;;;-144.14;94.21
7075;BME280;3578;51.568;6.932;2022-09-09T07:25:22;56193.34;;;-144.14;93.02
7075;BME280;3578;51.568;6.932;2022-09-09T07:27:49;56205.41;;;-144.14;92.25
7075;BME280;3578;51.568;6.932;2022-09-09T07:30:18;56241.50;;;-144.14;92.25
7075;BME280;3578;51.568;6.932;2022-09-09T07:32:45;56277.59;;;-144.14;92.22
7075;BME280;3578;51.568;6.932;2022-09-09T07:35:12;56241.50;;;-144.14;91.80
7075;BME280;3578;51.568;6.932;2022-09-09T07:37:39;56221.44;;;-144.14;90.76
7075;BME280;3578;51.568;6.932;2022-09-09T07:40:07;56233.47;;;-144.14;90.83
7075;BME280;3578;51.568;6.932;2022-09-09T07:42:35;56249.53;;;-144.14;90.16
7075;BME280;3578;51.568;6.932;2022-09-09T07:45:04;56209.41;;;-144.14;90.39
7075;BME280;3578;51.568;6.932;2022-09-09T07:47:32;56261.56;;;-144.14;90.71
7075;BME280;3578;51.568;6.932;2022-09-09T07:49:59;56227.47;;;-144.14;90.50
7075;BME280;3578;51.568;6.932;2022-09-09T07:52:26;56237.50;;;-144.14;90.56
7075;BME280;3578;51.568;6.932;2022-09-09T07:54:54;56289.63;;;-144.14;90.20
7075;BME280;3578;51.568;6.932;2022-09-09T07:57:22;56201.38;;;-144.14;89.00
7075;BME280;3578;51.568;6.932;2022-09-09T07:59:49;56245.50;;;-144.14;88.54
7075;BME280;3578;51.568;6.932;2022-09-09T08:02:16;56279.59;;;-144.14;88.49
7075;BME280;3578;51.568;6.932;2022-09-09T08:04:44;56347.81;;;-144.14;88.59
7075;BME280;3578;51.568;6.932;2022-09-09T08:07:12;56367.88;;;-144.14;87.65
7075;BME280;3578;51.568;6.932;2022-09-09T08:09:39;56434.06;;;-144.14;87.75
7075;BME280;3578;51.568;6.932;2022-09-09T08:12:06;56434.06;;;-144.14;86.33
7075;BME280;3578;51.568;6.932;2022-09-09T08:14:33;56542.38;;;-144.14;84.48
7075;BME280;3578;51.568;6.932;2022-09-09T08:17:01;56506.28;;;-144.14;82.25
7075;BME280;3578;51.568;6.932;2022-09-09T08:19:28;56534.38;;;-144.14;83.50
7075;BME280;3578;51.568;6.932;2022-09-09T08:21:57;56568.47;;;-144.14;80.22
7075;BME280;3578;51.568;6.932;2022-09-09T08:24:23;56626.66;;;-144.14;79.24
7075;BME280;3578;51.568;6.932;2022-09-09T08:26:50;56692.84;;;-144.14;77.80
7075;BME280;3578;51.568;6.932;2022-09-09T08:29:18;56720.94;;;-144.14;76.22
7075;BME280;3578;51.568;6.932;2022-09-09T08:31:48;56747.00;;;-144.14;76.51
7075;BME280;3578;51.568;6.932;2022-09-09T08:34:15;56722.94;;;-144.14;73.98
7075;BME280;3578;51.568;6.932;2022-09-09T08:36:44;56722.94;;;-144.14;75.31
7075;BME280;3578;51.568;6.932;2022-09-09T08:39:15;56779.13;;;-144.14;73.64
7075;BME280;3578;51.568;6.932;2022-09-09T08:42:12;56791.16;;;-144.14;69.83
7075;BME280;3578;51.568;6.932;2022-09-09T08:45:14;56773.09;;;-144.14;70.91
7075;BME280;3578;51.568;6.932;2022-09-09T08:47:55;56777.09;;;-144.14;69.46
7075;BME280;3578;51.568;6.932;2022-09-09T08:50:26;56722.94;;;-144.14;68.33
7075;BME280;3578;51.568;6.932;2022-09-09T08:53:01;56722.94;;;-144.14;68.04
7075;BME280;3578;51.568;6.932;2022-09-09T08:55:39;56726.94;;;-144.14;69.54
7075;BME280;3578;51.568;6.932;2022-09-09T08:58:14;56638.69;;;-144.14;70.30
7075;BME280;3578;51.568;6.932;2022-09-09T09:00:56;56775.09;;;-144.14;67.86
7075;BME280;3578;51.568;6.932;2022-09-09T09:03:35;56815.22;;;-144.14;67.65
7075;BME280;3578;51.568;6.932;2022-09-09T09:06:18;56835.28;;;-144.14;66.52
7075;BME280;3578;51.568;6.932;2022-09-09T09:08:59;56759.06;;;-144.14;66.44
7075;BME280;3578;51.568;6.932;2022-09-09T09:11:36;56827.25;;;-144.14;67.18
7075;BME280;3578;51.568;6.932;2022-09-09T09:14:10;56821.25;;;-144.14;66.19
7075;BME280;3578;51.568;6.932;2022-09-09T09:16:50;56801.19;;;-144.14;62.44
7075;BME280;3578;51.568;6.932;2022-09-09T09:19:19;56819.25;;;-144.14;62.50
7075;BME280;3578;51.568;6.932;2022-09-09T09:21:54;56907.50;;;-144.14;63.40
7075;BME280;3578;51.568;6.932;2022-09-09T09:24:30;56897.47;;;-144.14;63.98
7075;BME280;3578;51.568;6.932;2022-09-09T09:27:13;56955.66;;;-144.14;61.80
7075;BME280;3578;51.568;6.932;2022-09-09T09:29:40;56989.78;;;-144.14;59.04
7075;BME280;3578;51.568;6.932;2022-09-09T09:32:13;56983.75;;;-144.14;58.39
7075;BME280;3578;51.568;6.932;2022-09-09T09:34:47;56999.81;;;-144.14;60.29
7075;BME280;3578;51.568;6.932;2022-09-09T09:37:20;57031.91;;;-144.14;58.99
7075;BME280;3578;51.568;6.932;2022-09-09T09:39:50;57001.81;;;-144.14;61.43
7075;BME280;3578;51.568;6.932;2022-09-09T09:42:19;56917.53;;;-144.14;60.96
7075;BME280;3578;51.568;6.932;2022-09-09T09:44:46;56867.38;;;-144.14;61.36
7075;BME280;3578;51.568;6.932;2022-09-09T09:47:16;56805.19;;;-144.14;61.31
7075;BME280;3578;51.568;6.932;2022-09-09T09:49:52;56875.41;;;-144.14;62.15
7075;BME280;3578;51.568;6.932;2022-09-09T09:52:23;56851.34;;;-144.14;61.69
7075;BME280;3578;51.568;6.932;2022-09-09T09:54:50;56903.50;;;-144.14;60.06
7075;BME280;3578;51.568;6.932;2022-09-09T09:57:26;56929.59;;;-144.14;60.88
7075;BME280;3578;51.568;6.932;2022-09-09T10:00:04;56987.75;;;-144.14;61.62
7075;BME280;3578;51.568;6.932;2022-09-09T10:02:39;56931.59;;;-144.14;59.00
7075;BME280;3578;51.568;6.932;2022-09-09T10:05:15;56875.41;;;-144.14;61.63
7075;BME280;3578;51.568;6.932;2022-09-09T10:07:42;56851.34;;;-144.14;61.41
7075;BME280;3578;51.568;6.932;2022-09-09T10:10:17;56829.28;;;-144.14;61.86
7075;BME280;3578;51.568;6.932;2022-09-09T10:12:58;56851.34;;;-144.14;64.48
7075;BME280;3578;51.568;6.932;2022-09-09T10:15:37;56871.41;;;-144.14;65.03
7075;BME280;3578;51.568;6.932;2022-09-09T10:18:29;56891.47;;;-144.14;65.94
7075;BME280;3578;51.568;6.932;2022-09-09T10:21:08;56941.63;;;-144.14;63.15
7075;BME280;3578;51.568;6.932;2022-09-09T10:23:58;56993.78;;;-144.14;61.71
7075;BME280;3578;51.568;6.932;2022-09-09T10:26:40;56977.72;;;-144.14;60.39
7075;BME280;3578;51.568;6.932;2022-09-09T10:29:38;57029.91;;;-144.14;61.30
7075;BME280;3578;51.568;6.932;2022-09-09T10:32:37;57082.06;;;-144.14;54.93
7075;BME280;3578;51.568;6.932;2022-09-09T10:35:12;57068.00;;;-144.14;56.97
7075;BME280;3578;51.568;6.932;2022-09-09T10:41:09;56999.81;;;-144.14;58.74
7075;BME280;3578;51.568;6.932;2022-09-09T10:44:04;56947.63;;;-144.14;55.28
7075;BME280;3578;51.568;6.932;2022-09-09T10:46:49;56907.50;;;-144.14;56.08
7075;BME280;3578;51.568;6.932;2022-09-09T10:49:35;56845.31;;;-144.14;56.06
7075;BME280;3578;51.568;6.932;2022-09-09T10:52:14;56853.34;;;-144.14;55.41
7075;BME280;3578;51.568;6.932;2022-09-09T10:54:56;56787.13;;;-144.14;54.83
7075;BME280;3578;51.568;6.932;2022-09-09T10:57:29;56700.88;;;-144.14;55.48
7075;BME280;3578;51.568;6.932;2022-09-09T11:00:03;56672.78;;;-144.14;55.94
7075;BME280;3578;51.568;6.932;2022-09-09T11:02:34;56648.72;;;-144.14;56.70
7075;BME280;3578;51.568;6.932;2022-09-09T11:05:08;56610.59;;;-144.14;58.53
7075;BME280;3578;51.568;6.932;2022-09-09T11:07:42;56646.72;;;-144.14;60.44
7075;BME280;3578;51.568;6.932;2022-09-09T11:10:21;56684.81;;;-144.14;60.47
7075;BME280;3578;51.568;6.932;2022-09-09T11:12:52;56686.84;;;-144.14;55.63
7075;BME280;3578;51.568;6.932;2022-09-09T11:15:28;56652.72;;;-144.14;56.89
7075;BME280;3578;51.568;6.932;2022-09-09T11:18:00;56672.78;;;-144.14;58.90
7075;BME280;3578;51.568;6.932;2022-09-09T11:20:28;56749.03;;;-144.14;59.15
7075;BME280;3578;51.568;6.932;2022-09-09T11:23:00;56797.16;;;-144.14;59.03
7075;BME280;3578;51.568;6.932;2022-09-09T11:25:34;56827.25;;;-144.14;56.72
7075;BME280;3578;51.568;6.932;2022-09-09T11:28:20;56865.38;;;-144.14;55.98
7075;BME280;3578;51.568;6.932;2022-09-09T11:31:10;56839.31;;;-144.14;56.84
7075;BME280;3578;51.568;6.932;2022-09-09T11:34:12;56819.25;;;-144.14;53.91
7075;BME280;3578;51.568;6.932;2022-09-09T11:36:56;56865.38;;;-144.14;54.43
7075;BME280;3578;51.568;6.932;2022-09-09T11:40:09;56839.31;;;-144.14;55.38
7075;BME280;3578;51.568;6.932;2022-09-09T11:42:41;56943.63;;;-144.14;56.13
7075;BME280;3578;51.568;6.932;2022-09-09T11:45:15;56889.47;;;-144.14;56.65
7075;BME280;3578;51.568;6.932;2022-09-09T11:47:52;56931.59;;;-144.14;57.30
7075;BME280;3578;51.568;6.932;2022-09-09T11:50:34;56929.59;;;-144.14;56.76
7075;BME280;3578;51.568;6.932;2022-09-09T11:53:20;56909.53;;;-144.14;57.21
7075;BME280;3578;51.568;6.932;2022-09-09T11:56:09;56931.59;;;-144.14;58.88
7075;BME280;3578;51.568;6.932;2022-09-09T11:58:41;56935.59;;;-144.14;57.91
7075;BME280;3578;51.568;6.932;2022-09-09T12:01:37;57088.09;;;-144.14;55.91
7075;BME280;3578;51.568;6.932;2022-09-09T12:04:28;57174.34;;;-144.14;55.33
7075;BME280;3578;51.568;6.932;2022-09-09T12:07:02;57214.47;;;-144.14;54.55
7075;BME280;3578;51.568;6.932;2022-09-09T12:09:46;57116.16;;;-144.14;52.11
7075;BME280;3578;51.568;6.932;2022-09-09T12:12:28;57118.19;;;-144.14;53.17
7075;BME280;3578;51.568;6.932;2022-09-09T12:17:48;57021.88;;;-144.14;53.61
7075;BME280;3578;51.568;6.932;2022-09-09T12:20:19;57027.88;;;-144.14;56.05
7075;BME280;3578;51.568;6.932;2022-09-09T12:23:15;56983.75;;;-144.14;55.42
7075;BME280;3578;51.568;6.932;2022-09-09T12:25:57;57053.97;;;-144.14;55.54
7075;BME280;3578;51.568;6.932;2022-09-09T12:28:42;57031.91;;;-144.14;56.50
7075;BME280;3578;51.568;6.932;2022-09-09T12:31:17;56969.72;;;-144.14;56.05
7075;BME280;3578;51.568;6.932;2022-09-09T12:33:47;56905.50;;;-144.14;55.79
7075;BME280;3578;51.568;6.932;2022-09-09T12:36:18;56859.38;;;-144.14;56.22
7075;BME280;3578;51.568;6.932;2022-09-09T12:38:47;56817.22;;;-144.14;58.33
7075;BME280;3578;51.568;6.932;2022-09-09T12:41:20;56789.16;;;-144.14;60.54
7075;BME280;3578;51.568;6.932;2022-09-09T12:43:47;56787.13;;;-144.14;58.70
7075;BME280;3578;51.568;6.932;2022-09-09T12:46:25;56807.19;;;-144.14;58.16
7075;BME280;3578;51.568;6.932;2022-09-09T12:48:55;56787.13;;;-144.14;57.95
7075;BME280;3578;51.568;6.932;2022-09-09T12:51:27;56805.19;;;-144.14;57.37
7075;BME280;3578;51.568;6.932;2022-09-09T12:53:57;56791.16;;;-144.14;57.70
7075;BME280;3578;51.568;6.932;2022-09-09T12:56:27;56765.06;;;-144.14;61.53
7075;BME280;3578;51.568;6.932;2022-09-09T12:58:56;56745.00;;;-144.14;66.65
7075;BME280;3578;51.568;6.932;2022-09-09T13:01:26;56698.88;;;-144.14;70.52
7075;BME280;3578;51.568;6.932;2022-09-09T13:03:54;56648.72;;;-144.14;73.24
7075;BME280;3578;51.568;6.932;2022-09-09T13:06:23;56642.69;;;-144.14;75.08
7075;BME280;3578;51.568;6.932;2022-09-09T13:08:51;56638.69;;;-144.14;76.85
7075;BME280;3578;51.568;6.932;2022-09-09T13:11:25;56572.47;;;-144.14;78.38
7075;BME280;3578;51.568;6.932;2022-09-09T13:13:55;56560.44;;;-144.14;79.83
7075;BME280;3578;51.568;6.932;2022-09-09T13:16:26;56470.19;;;-144.14;81.22
7075;BME280;3578;51.568;6.932;2022-09-09T13:18:58;56486.22;;;-144.14;83.23
7075;BME280;3578;51.568;6.932;2022-09-09T13:21:34;56490.22;;;-144.14;83.94
7075;BME280;3578;51.568;6.932;2022-09-09T13:24:05;56446.09;;;-144.14;85.35
7075;BME280;3578;51.568;6.932;2022-09-09T13:26:34;56385.94;;;-144.14;86.01
7075;BME280;3578;51.568;6.932;2022-09-09T13:29:25;56339.78;;;-144.14;86.75